createdAt,value
2023-10-22T00:00:08.958Z,75.08
2023-10-22T00:02:36.861Z,75.66
2023-10-22T00:05:07.134Z,75.82
2023-10-22T00:07:34.205Z,76.15
2023-10-22T00:10:00.797Z,75.65
2023-10-22T00:12:27.450Z,76.09
2023-10-22T00:14:54.250Z,76.22
2023-10-22T00:17:20.865Z,76.54
2023-10-22T00:19:47.799Z,76.41
2023-10-22T00:22:15.538Z,76.04
2023-10-22T00:24:42.582Z,75.36
2023-10-22T00:27:09.114Z,75.27
2023-10-22T00:29:35.914Z,75.31
2023-10-22T00:32:02.485Z,75.44
2023-10-22T00:34:29.555Z,75.80
2023-10-22T00:36:56.194Z,75.20
2023-10-22T00:39:22.692Z,76.22
2023-10-22T00:41:49.153Z,76.06
2023-10-22T00:44:15.607Z,75.52
2023-10-22T00:46:47.824Z,75.17
2023-10-22T00:49:16.540Z,75.77
2023-10-22T00:51:44.082Z,76.08
2023-10-22T00:54:11.714Z,76.55
2023-10-22T00:56:39.258Z,76.78
2023-10-22T00:59:06.075Z,76.69
2023-10-22T01:01:32.785Z,75.74
2023-10-22T01:03:59.483Z,75.77
2023-10-22T01:06:26.859Z,75.95
2023-10-22T01:08:55.270Z,78.63
2023-10-22T01:11:21.803Z,78.74
2023-10-22T01:13:48.821Z,77.56
2023-10-22T01:16:15.354Z,78.02
2023-10-22T01:18:41.927Z,78.21
2023-10-22T01:21:09.459Z,77.79
2023-10-22T01:23:38.049Z,79.22
2023-10-22T01:26:07.652Z,79.85
2023-10-22T01:28:37.679Z,79.86
2023-10-22T01:31:11.625Z,79.36
2023-10-22T01:33:38.816Z,79.10
2023-10-22T01:36:05.559Z,79.69
2023-10-22T01:38:32.117Z,79.26
2023-10-22T01:40:58.482Z,79.42
2023-10-22T01:43:24.919Z,79.18
2023-10-22T01:45:51.325Z,79.75
2023-10-22T01:48:17.866Z,79.96
2023-10-22T01:50:44.588Z,80.23
2023-10-22T01:53:11.042Z,79.93
2023-10-22T01:55:37.672Z,79.94
2023-10-22T01:58:04.142Z,80.51
2023-10-22T02:00:31.413Z,80.30
2023-10-22T02:02:57.962Z,80.42
2023-10-22T02:05:24.521Z,79.72
2023-10-22T02:07:51.053Z,79.69
2023-10-22T02:10:17.557Z,80.03
2023-10-22T02:12:44.216Z,80.00
2023-10-22T02:15:10.862Z,80.00
2023-10-22T02:17:38.405Z,80.43
2023-10-22T02:20:10.733Z,80.69
2023-10-22T02:22:38.578Z,80.94
2023-10-22T02:25:06.648Z,80.65
2023-10-22T02:27:33.566Z,81.26
2023-10-22T02:30:00.184Z,81.07
2023-10-22T02:32:26.749Z,81.14
2023-10-22T02:34:53.279Z,80.81
2023-10-22T02:37:20.915Z,81.47
2023-10-22T02:39:48.038Z,81.33
2023-10-22T02:42:14.996Z,81.13
2023-10-22T02:44:41.607Z,81.61
2023-10-22T02:47:08.053Z,81.05
2023-10-22T02:49:34.582Z,81.67
2023-10-22T02:52:01.138Z,81.37
2023-10-22T02:54:27.796Z,80.69
2023-10-22T02:56:54.223Z,80.71
2023-10-22T02:59:20.647Z,80.56
2023-10-22T03:01:47.061Z,80.25
2023-10-22T03:04:13.726Z,79.92
2023-10-22T03:06:40.278Z,80.54
2023-10-22T03:09:06.785Z,79.44
2023-10-22T03:11:33.198Z,79.70
2023-10-22T03:13:59.675Z,79.88
2023-10-22T03:16:26.152Z,79.61
2023-10-22T03:18:52.644Z,80.01
2023-10-22T03:21:20.546Z,80.25
2023-10-22T03:23:48.976Z,80.43
2023-10-22T03:26:17.492Z,80.29
2023-10-22T03:28:44.558Z,80.03
2023-10-22T03:31:11.166Z,80.20
2023-10-22T03:33:37.776Z,80.36
2023-10-22T03:36:05.409Z,79.98
2023-10-22T03:38:32.803Z,79.91
2023-10-22T03:41:03.289Z,79.79
2023-10-22T03:43:30.510Z,79.65
2023-10-22T03:45:57.622Z,79.79
2023-10-22T03:48:24.941Z,79.92
2023-10-22T03:50:51.698Z,80.08
2023-10-22T03:53:19.374Z,79.57
2023-10-22T03:55:47.397Z,80.79
2023-10-22T03:58:13.820Z,81.29
2023-10-22T04:00:40.247Z,80.50
2023-10-22T04:03:06.933Z,80.62
2023-10-22T04:05:33.616Z,81.42
2023-10-22T04:08:00.248Z,82.18
2023-10-22T04:10:26.685Z,81.72
2023-10-22T04:12:53.188Z,82.14
2023-10-22T04:15:19.788Z,81.13
2023-10-22T04:17:50.346Z,81.09
2023-10-22T04:20:17.433Z,81.30
2023-10-22T04:22:44.771Z,82.66
2023-10-22T04:25:12.515Z,82.16
2023-10-22T04:27:39.045Z,81.05
2023-10-22T04:30:06.386Z,81.13
2023-10-22T04:32:34.533Z,81.31
2023-10-22T04:35:01.562Z,81.93
2023-10-22T04:37:29.076Z,81.79
2023-10-22T04:40:00.061Z,81.82
2023-10-22T04:42:28.914Z,82.28
2023-10-22T04:44:56.137Z,82.60
2023-10-22T04:47:22.741Z,82.91
2023-10-22T04:49:54.604Z,82.97
2023-10-22T04:52:32.261Z,82.83
2023-10-22T04:55:00.695Z,82.63
2023-10-22T04:57:28.063Z,82.18
2023-10-22T04:59:54.811Z,82.50
2023-10-22T05:02:21.634Z,82.68
2023-10-22T05:04:51.935Z,83.15
2023-10-22T05:07:18.775Z,83.54
2023-10-22T05:09:45.399Z,84.53
2023-10-22T05:12:11.951Z,84.25
2023-10-22T05:14:38.616Z,85.06
2023-10-22T05:17:06.519Z,85.07
2023-10-22T05:19:33.067Z,84.35
2023-10-22T05:21:59.535Z,84.48
2023-10-22T05:24:26.927Z,84.77
2023-10-22T05:26:53.710Z,84.86
2023-10-22T05:29:20.376Z,85.52
2023-10-22T05:31:46.786Z,84.74
2023-10-22T05:34:13.207Z,85.33
2023-10-22T05:36:39.607Z,85.58
2023-10-22T05:39:06.049Z,85.91
2023-10-22T05:41:32.503Z,86.61
2023-10-22T05:44:01.188Z,84.97
2023-10-22T05:46:34.054Z,85.47
2023-10-22T05:49:01.536Z,85.39
2023-10-22T05:51:28.039Z,85.68
2023-10-22T05:53:54.691Z,85.09
2023-10-22T05:56:25.848Z,85.35
2023-10-22T05:58:52.413Z,85.24
2023-10-22T06:01:19.102Z,85.64
2023-10-22T06:03:47.497Z,85.72
2023-10-22T06:06:21.564Z,85.81
2023-10-22T06:08:48.154Z,85.35
2023-10-22T06:11:15.355Z,85.53
2023-10-22T06:13:42.381Z,85.42
2023-10-22T06:16:09.095Z,85.43
2023-10-22T06:18:35.762Z,85.21
2023-10-22T06:21:13.244Z,85.68
2023-10-22T06:23:39.930Z,86.10
2023-10-22T06:26:09.978Z,85.64
2023-10-22T06:28:36.532Z,85.73
2023-10-22T06:31:13.432Z,85.88
2023-10-22T06:33:41.659Z,85.79
2023-10-22T06:36:17.703Z,86.27
2023-10-22T06:38:45.767Z,86.40
2023-10-22T06:41:13.781Z,85.75
2023-10-22T06:43:40.391Z,85.44
2023-10-22T06:46:06.814Z,85.89
2023-10-22T06:48:33.335Z,85.14
2023-10-22T06:51:00.239Z,85.36
2023-10-22T06:53:26.655Z,85.41
2023-10-22T06:55:54.105Z,85.38
2023-10-22T06:58:20.690Z,85.00
2023-10-22T07:00:47.069Z,85.28
2023-10-22T07:03:13.601Z,85.07
2023-10-22T07:05:40.028Z,85.55
2023-10-22T07:08:06.647Z,85.75
2023-10-22T07:10:33.288Z,85.29
2023-10-22T07:12:59.791Z,84.92
2023-10-22T07:15:26.175Z,85.13
2023-10-22T07:17:52.858Z,85.50
2023-10-22T07:20:19.646Z,84.40
2023-10-22T07:22:46.027Z,84.95
2023-10-22T07:25:12.519Z,84.87
2023-10-22T07:27:38.920Z,84.47
2023-10-22T07:30:06.026Z,84.69
2023-10-22T07:32:32.487Z,84.33
2023-10-22T07:34:59.413Z,84.50
2023-10-22T07:37:25.864Z,84.37
2023-10-22T07:39:52.279Z,84.42
2023-10-22T07:42:18.682Z,84.70
2023-10-22T07:44:45.125Z,84.37
2023-10-22T07:47:11.570Z,84.78
2023-10-22T07:49:37.957Z,84.12
2023-10-22T07:52:05.132Z,83.76
2023-10-22T07:54:31.562Z,84.07
2023-10-22T07:56:58.803Z,84.04
2023-10-22T07:59:25.291Z,84.03
2023-10-22T08:01:51.738Z,83.38
2023-10-22T08:04:18.297Z,83.39
2023-10-22T08:06:44.736Z,84.05
2023-10-22T08:09:11.224Z,83.68
2023-10-22T08:11:37.699Z,84.08
2023-10-22T08:14:04.225Z,84.04
2023-10-22T08:16:32.669Z,83.30
2023-10-22T08:18:59.123Z,83.99
2023-10-22T08:21:25.684Z,83.31
2023-10-22T08:23:52.178Z,82.78
2023-10-22T08:26:18.808Z,82.92
2023-10-22T08:28:45.197Z,82.25
2023-10-22T08:31:11.638Z,82.66
2023-10-22T08:33:38.144Z,82.39
2023-10-22T08:36:06.278Z,81.64
2023-10-22T08:38:32.920Z,81.94
2023-10-22T08:41:01.743Z,82.45
2023-10-22T08:43:33.422Z,82.33
2023-10-22T08:46:00.022Z,82.48
2023-10-22T08:48:28.174Z,82.03
2023-10-22T08:50:57.595Z,82.25
2023-10-22T08:53:24.122Z,81.63
2023-10-22T08:55:50.545Z,82.21
2023-10-22T08:58:19.576Z,81.68
2023-10-22T09:00:47.769Z,81.22
2023-10-22T09:03:15.640Z,81.35
2023-10-22T09:05:43.497Z,81.21
2023-10-22T09:08:10.392Z,80.88
2023-10-22T09:10:38.798Z,81.10
2023-10-22T09:13:08.310Z,80.53
2023-10-22T09:15:43.131Z,79.91
2023-10-22T09:18:09.700Z,80.83
2023-10-22T09:20:36.632Z,81.41
2023-10-22T09:23:20.268Z,80.69
2023-10-22T09:25:48.570Z,80.09
2023-10-22T09:28:22.241Z,79.97
2023-10-22T09:30:54.763Z,79.16
2023-10-22T09:33:32.216Z,79.48
2023-10-22T09:36:12.616Z,79.00
2023-10-22T09:38:49.924Z,79.40
2023-10-22T09:41:29.710Z,79.11
2023-10-22T09:43:59.240Z,79.10
2023-10-22T09:46:35.478Z,79.38
2023-10-22T09:49:08.888Z,78.22
2023-10-22T09:51:36.698Z,78.64
2023-10-22T09:54:06.858Z,78.21
2023-10-22T09:56:38.733Z,78.87
2023-10-22T09:59:08.849Z,77.75
2023-10-22T10:01:37.220Z,78.71
2023-10-22T10:04:04.478Z,78.45
2023-10-22T10:06:31.576Z,77.62
2023-10-22T10:09:00.220Z,76.82
2023-10-22T10:11:28.274Z,76.80
2023-10-22T10:13:54.679Z,77.15
2023-10-22T10:16:24.482Z,77.46
2023-10-22T10:19:03.953Z,77.08
2023-10-22T10:21:45.275Z,77.59
2023-10-22T10:24:24.680Z,75.83
2023-10-22T10:26:57.629Z,76.52
2023-10-22T10:29:26.598Z,76.32
2023-10-22T10:31:55.225Z,76.09
2023-10-22T10:34:37.572Z,76.22
2023-10-22T10:37:18.268Z,75.39
2023-10-22T10:39:48.462Z,75.66
2023-10-22T10:42:35.552Z,75.83
2023-10-22T10:45:02.184Z,75.94
2023-10-22T10:47:47.071Z,76.01
2023-10-22T10:50:19.492Z,74.55
2023-10-22T10:53:06.937Z,74.51
2023-10-22T10:55:33.916Z,74.79
2023-10-22T10:58:02.028Z,74.51
2023-10-22T11:00:32.145Z,74.17
2023-10-22T11:03:01.328Z,73.88
2023-10-22T11:05:33.245Z,73.03
2023-10-22T11:08:00.100Z,74.21
2023-10-22T11:10:28.678Z,73.08
2023-10-22T11:13:03.384Z,73.45
2023-10-22T11:15:38.654Z,73.88
2023-10-22T11:18:07.612Z,72.17
2023-10-22T11:20:34.516Z,72.81
2023-10-22T11:23:01.657Z,71.84
2023-10-22T11:25:28.888Z,72.34
2023-10-22T11:27:55.478Z,71.97
2023-10-22T11:30:39.216Z,72.59
2023-10-22T11:33:10.514Z,71.67
2023-10-22T11:35:38.661Z,71.63
2023-10-22T11:38:07.320Z,71.75
2023-10-22T11:40:37.723Z,72.66
2023-10-22T11:43:14.989Z,72.03
2023-10-22T11:45:52.453Z,72.78
2023-10-22T11:48:21.597Z,72.74
2023-10-22T11:50:50.204Z,72.45
2023-10-22T11:53:18.130Z,72.30
2023-10-22T11:55:46.613Z,71.78
2023-10-22T11:58:20.929Z,72.48
2023-10-22T12:00:48.347Z,72.64
2023-10-22T12:03:15.246Z,72.31
2023-10-22T12:05:43.018Z,72.99
2023-10-22T12:08:09.416Z,72.24
2023-10-22T12:10:35.824Z,73.05
2023-10-22T12:13:02.833Z,72.89
2023-10-22T12:15:29.655Z,73.24
2023-10-22T12:17:56.927Z,72.87
2023-10-22T12:20:23.810Z,71.33
2023-10-22T12:22:50.458Z,71.32
2023-10-22T12:25:16.879Z,71.36
2023-10-22T12:27:43.705Z,71.64
2023-10-22T12:30:10.513Z,70.83
2023-10-22T12:32:37.164Z,70.45
2023-10-22T12:35:04.049Z,72.09
2023-10-22T12:37:30.498Z,72.58
2023-10-22T12:39:56.930Z,72.54
2023-10-22T12:42:23.385Z,71.82
2023-10-22T12:44:49.922Z,71.65
2023-10-22T12:47:16.567Z,72.21
2023-10-22T12:49:43.756Z,72.48
2023-10-22T12:52:14.380Z,71.82
2023-10-22T12:54:44.122Z,71.16
2023-10-22T12:57:12.250Z,71.89
2023-10-22T12:59:40.339Z,73.38
2023-10-22T13:02:07.145Z,72.15
2023-10-22T13:04:33.895Z,72.25
2023-10-22T13:07:00.589Z,71.76
2023-10-22T13:09:27.235Z,72.45
2023-10-22T13:11:53.790Z,72.13
2023-10-22T13:14:21.451Z,72.91
2023-10-22T13:16:48.046Z,72.49
2023-10-22T13:19:14.492Z,73.51
2023-10-22T13:21:40.934Z,74.18
2023-10-22T13:24:07.828Z,73.91
2023-10-22T13:26:34.262Z,73.96
2023-10-22T13:29:07.441Z,73.96
2023-10-22T13:31:35.077Z,73.07
2023-10-22T13:34:01.972Z,73.24
2023-10-22T13:36:28.414Z,73.45
2023-10-22T13:38:54.899Z,74.07
2023-10-22T13:41:21.757Z,73.95
2023-10-22T13:43:48.263Z,74.68
2023-10-22T13:46:14.717Z,73.97
2023-10-22T13:48:41.278Z,74.36
2023-10-22T13:51:08.262Z,74.33
2023-10-22T13:53:35.025Z,74.54
2023-10-22T13:56:01.478Z,74.98
2023-10-22T13:58:31.038Z,75.18
2023-10-22T14:00:57.687Z,74.51
2023-10-22T14:03:24.229Z,75.20
2023-10-22T14:05:51.791Z,74.51
2023-10-22T14:08:20.717Z,74.34
2023-10-22T14:10:49.514Z,74.56
2023-10-22T14:13:17.733Z,74.34
2023-10-22T14:15:46.064Z,74.54
2023-10-22T14:18:12.880Z,75.19
2023-10-22T14:20:39.583Z,73.97
2023-10-22T14:23:06.020Z,74.95
2023-10-22T14:25:32.463Z,74.92
2023-10-22T14:27:58.965Z,74.57
2023-10-22T14:30:25.578Z,76.16
2023-10-22T14:32:52.137Z,76.05
2023-10-22T14:35:18.609Z,76.70
2023-10-22T14:37:45.160Z,75.38
2023-10-22T14:40:11.903Z,75.70
2023-10-22T14:42:38.453Z,76.15
2023-10-22T14:45:05.726Z,76.80
2023-10-22T14:47:32.210Z,76.67
2023-10-22T14:49:58.605Z,77.50
2023-10-22T14:52:25.075Z,76.56
2023-10-22T14:54:51.483Z,76.07
2023-10-22T14:57:17.971Z,76.92
2023-10-22T14:59:44.486Z,76.46
2023-10-22T15:02:11.093Z,77.25
2023-10-22T15:04:37.959Z,76.96
2023-10-22T15:07:04.926Z,78.29
2023-10-22T15:09:31.571Z,78.08
2023-10-22T15:11:58.064Z,77.57
2023-10-22T15:14:24.621Z,77.60
2023-10-22T15:16:51.021Z,77.46
2023-10-22T15:19:17.446Z,77.32
2023-10-22T15:21:44.618Z,77.13
2023-10-22T15:24:11.113Z,77.11
2023-10-22T15:26:38.201Z,76.21
2023-10-22T15:29:04.709Z,77.17
2023-10-22T15:31:31.379Z,76.44
2023-10-22T15:33:57.900Z,75.93
2023-10-22T15:36:24.499Z,76.29
2023-10-22T15:38:50.957Z,76.69
2023-10-22T15:41:17.421Z,76.73
2023-10-22T15:43:44.677Z,77.50
2023-10-22T15:46:20.933Z,76.81
2023-10-22T15:48:47.993Z,77.99
2023-10-22T15:51:18.514Z,76.69
2023-10-22T15:53:45.889Z,78.35
2023-10-22T15:56:13.327Z,77.85
2023-10-22T15:58:39.735Z,78.39
2023-10-22T16:01:06.391Z,78.34
2023-10-22T16:03:32.847Z,77.53
2023-10-22T16:06:01.159Z,77.78
2023-10-22T16:08:27.933Z,78.65
2023-10-22T16:10:54.399Z,78.92
2023-10-22T16:13:20.930Z,78.35
2023-10-22T16:15:47.411Z,78.91
2023-10-22T16:18:15.427Z,78.42
2023-10-22T16:20:41.907Z,78.60
2023-10-22T16:23:11.353Z,78.25
2023-10-22T16:25:45.282Z,78.82
2023-10-22T16:28:12.654Z,78.40
2023-10-22T16:30:44.558Z,78.76
2023-10-22T16:33:13.603Z,79.16
2023-10-22T16:35:40.532Z,79.36
2023-10-22T16:38:06.933Z,79.83
2023-10-22T16:40:36.921Z,79.55
2023-10-22T16:43:03.380Z,79.97
2023-10-22T16:45:29.885Z,81.24
2023-10-22T16:47:56.346Z,80.11
2023-10-22T16:50:22.834Z,81.24
2023-10-22T16:52:49.251Z,80.65
2023-10-22T16:55:15.656Z,80.57
2023-10-22T16:57:42.192Z,80.93
2023-10-22T17:00:12.042Z,81.04
2023-10-22T17:02:38.910Z,81.33
2023-10-22T17:05:05.848Z,81.26
2023-10-22T17:07:34.649Z,80.96
2023-10-22T17:10:01.890Z,81.27
2023-10-22T17:12:28.379Z,81.29
2023-10-22T17:14:55.005Z,80.26
2023-10-22T17:17:21.478Z,80.71
2023-10-22T17:19:49.157Z,80.58
2023-10-22T17:22:15.806Z,81.04
2023-10-22T17:24:42.532Z,81.31
2023-10-22T17:27:09.015Z,80.63
2023-10-22T17:29:35.595Z,81.42
2023-10-22T17:32:02.716Z,81.84
2023-10-22T17:34:29.562Z,81.78
2023-10-22T17:36:56.278Z,81.68
2023-10-22T17:39:23.342Z,81.43
2023-10-22T17:41:50.220Z,81.20
2023-10-22T17:44:17.076Z,81.56
2023-10-22T17:46:43.874Z,81.73
2023-10-22T17:49:10.872Z,83.37
2023-10-22T17:51:37.797Z,83.25
2023-10-22T17:54:07.387Z,83.92
2023-10-22T17:56:34.901Z,84.55
2023-10-22T17:59:01.831Z,84.46
2023-10-22T18:01:28.783Z,84.50
2023-10-22T18:03:55.859Z,83.69
2023-10-22T18:06:23.072Z,85.23
2023-10-22T18:08:50.026Z,85.62
2023-10-22T18:11:20.621Z,86.98
2023-10-22T18:13:47.608Z,85.53
2023-10-22T18:16:20.261Z,85.83
2023-10-22T18:18:47.503Z,87.04
2023-10-22T18:21:14.754Z,87.47
2023-10-22T18:23:41.836Z,88.36
2023-10-22T18:26:09.883Z,87.88
2023-10-22T18:28:36.882Z,88.26
2023-10-22T18:31:08.242Z,88.16
2023-10-22T18:33:36.298Z,87.04
2023-10-22T18:36:13.651Z,89.30
2023-10-22T18:38:41.720Z,89.42
2023-10-22T18:41:10.663Z,89.48
2023-10-22T18:43:46.569Z,89.66
2023-10-22T18:46:20.257Z,89.16
2023-10-22T18:48:49.005Z,88.96
2023-10-22T18:51:19.846Z,89.13
2023-10-22T18:53:47.844Z,89.23
2023-10-22T18:56:20.150Z,89.35
2023-10-22T18:58:48.006Z,90.71
2023-10-22T19:01:24.738Z,91.11
2023-10-22T19:04:00.237Z,90.35
2023-10-22T19:06:29.347Z,91.25
2023-10-22T19:09:03.490Z,91.13
2023-10-22T19:11:33.942Z,91.09
2023-10-22T19:14:03.786Z,91.66
2023-10-22T19:16:38.136Z,92.28
2023-10-22T19:19:07.361Z,91.91
2023-10-22T19:21:42.868Z,91.70
2023-10-22T19:24:10.532Z,92.03
2023-10-22T19:26:39.956Z,92.92
2023-10-22T19:29:07.011Z,92.03
2023-10-22T19:31:35.072Z,92.07
2023-10-22T19:34:02.351Z,92.58
2023-10-22T19:36:30.599Z,92.50
2023-10-22T19:38:57.572Z,92.32
2023-10-22T19:41:24.984Z,91.66
2023-10-22T19:43:53.095Z,92.71
2023-10-22T19:46:20.146Z,92.11
2023-10-22T19:48:48.485Z,91.22
2023-10-22T19:51:15.627Z,91.43
2023-10-22T19:53:42.604Z,91.52
2023-10-22T19:56:19.209Z,91.59
2023-10-22T19:58:47.243Z,92.17
2023-10-22T20:01:24.731Z,92.40
2023-10-22T20:03:53.854Z,92.83
2023-10-22T20:06:23.277Z,92.27
2023-10-22T20:08:51.494Z,92.25
2023-10-22T20:11:18.771Z,92.27
2023-10-22T20:13:46.821Z,92.95
2023-10-22T20:16:22.117Z,92.31
2023-10-22T20:18:50.198Z,92.69
2023-10-22T20:21:21.533Z,93.11
2023-10-22T20:23:48.939Z,92.68
2023-10-22T20:26:15.927Z,94.10
2023-10-22T20:28:45.261Z,94.06
2023-10-22T20:31:13.399Z,94.47
2023-10-22T20:33:42.082Z,93.61
2023-10-22T20:36:11.724Z,93.38
2023-10-22T20:38:39.181Z,93.11
2023-10-22T20:41:07.151Z,92.51
2023-10-22T20:43:34.057Z,92.61
2023-10-22T20:46:08.204Z,92.69
2023-10-22T20:48:36.230Z,92.22
2023-10-22T20:51:07.651Z,92.69
2023-10-22T20:53:38.116Z,93.50
2023-10-22T20:56:08.277Z,93.24
2023-10-22T20:58:35.591Z,92.84
2023-10-22T21:01:02.936Z,93.08
2023-10-22T21:03:29.585Z,93.47
2023-10-22T21:05:56.303Z,93.13
2023-10-22T21:08:22.752Z,93.09
2023-10-22T21:10:49.253Z,92.74
2023-10-22T21:13:15.765Z,92.43
2023-10-22T21:15:42.630Z,92.27
2023-10-22T21:18:09.869Z,92.85
2023-10-22T21:20:36.457Z,92.64
2023-10-22T21:23:03.166Z,93.29
2023-10-22T21:25:29.608Z,93.64
2023-10-22T21:27:56.300Z,94.05
2023-10-22T21:30:22.952Z,92.85
2023-10-22T21:32:49.484Z,93.40
2023-10-22T21:35:15.929Z,92.64
2023-10-22T21:37:42.400Z,93.20
2023-10-22T21:40:09.371Z,92.64
2023-10-22T21:42:36.156Z,92.86
2023-10-22T21:45:04.098Z,93.43
2023-10-22T21:47:31.180Z,93.79
2023-10-22T21:49:57.678Z,94.45
2023-10-22T21:52:24.421Z,93.73
2023-10-22T21:54:51.243Z,93.50
2023-10-22T21:57:17.980Z,92.91
2023-10-22T21:59:44.435Z,93.06
2023-10-22T22:02:11.217Z,93.48
2023-10-22T22:04:37.937Z,93.26
2023-10-22T22:07:04.708Z,92.44
2023-10-22T22:09:31.171Z,92.50
2023-10-22T22:11:57.620Z,92.21
2023-10-22T22:14:23.986Z,92.23
2023-10-22T22:16:50.370Z,92.89
2023-10-22T22:19:16.847Z,93.76
2023-10-22T22:21:43.313Z,93.28
2023-10-22T22:24:09.928Z,93.17
2023-10-22T22:26:36.897Z,92.84
2023-10-22T22:29:03.777Z,93.38
2023-10-22T22:31:30.293Z,94.16
2023-10-22T22:33:56.933Z,93.65
2023-10-22T22:36:24.591Z,95.50
2023-10-22T22:38:52.669Z,94.53
2023-10-22T22:41:19.160Z,93.99
2023-10-22T22:43:45.527Z,93.28
2023-10-22T22:46:12.022Z,94.25
2023-10-22T22:48:38.542Z,94.27
2023-10-22T22:51:04.994Z,92.89
2023-10-22T22:53:31.419Z,93.14
2023-10-22T22:55:57.789Z,93.75
2023-10-22T22:58:24.267Z,93.36
2023-10-22T23:00:50.840Z,93.49
2023-10-22T23:03:17.378Z,93.32
2023-10-22T23:05:44.204Z,93.50
2023-10-22T23:08:10.868Z,94.86
2023-10-22T23:10:37.337Z,93.49
2023-10-22T23:13:03.827Z,93.63
2023-10-22T23:15:30.637Z,93.43
2023-10-22T23:17:57.144Z,93.34
2023-10-22T23:20:23.580Z,93.61
2023-10-22T23:22:50.024Z,94.00
2023-10-22T23:25:16.534Z,93.99
2023-10-22T23:27:43.046Z,93.27
2023-10-22T23:30:10.149Z,93.66
2023-10-22T23:32:36.725Z,93.65
2023-10-22T23:35:03.175Z,93.28
2023-10-22T23:37:29.626Z,93.14
2023-10-22T23:39:56.163Z,94.82
2023-10-22T23:42:22.569Z,93.29
2023-10-22T23:44:48.992Z,93.54
2023-10-22T23:47:16.074Z,93.15
2023-10-22T23:49:42.477Z,93.37
2023-10-22T23:52:09.366Z,94.81
2023-10-22T23:54:35.860Z,96.27
2023-10-22T23:57:02.289Z,94.98
2023-10-22T23:59:28.697Z,95.27
